• Join FlightAware (Why Join?)
  • Login
  • US Flag 
03:34PM EDT


 

Airport Tracker/Info


-or-


 

Live Flight TrackerFlight Track Log ✈ DAL245 ✈ 07-May-2013 ✈ KJFK - KPHX

Flight Track Log - Related Links

Times and Time Zones

All times are in EDT time to prevent confusion due to time zone crossing. See the DAL245 flight status page for this flight to view local times or setup timezone preferences in your user account.

Time Position Orientation Groundspeed Altitude Reporting Facility
EDT Latitude Longitude Course Direction KTS MPH feet Rate Location/Type
07:46PM 40.6333 -73.6833 285° West 245 282 3,300  Level New York TRACON
07:47PM 40.9972 -73.7667 North  Level FlightAware Approximate
07:47PM 40.6833 -73.6167 45° Northeast 268 308 6,600  Level New York TRACON
07:48PM 41.1035 -73.7908 281° West  Level FlightAware Approximate
07:48PM 40.7500 -73.5500 37° Northeast 288 331 9,400  Level New York TRACON
07:49PM 41.1333 -73.9435 270° West  Level FlightAware Approximate
07:49PM 40.8333 -73.5500 360° North 329 379 11,600  Level New York TRACON
07:50PM 41.1612 -74.0890 304° West  Level FlightAware Approximate
07:51PM 41.1792 -74.2458 285° West  Level FlightAware Approximate
07:51PM 41.0275 -73.7006 330° Northwest 354 407 17,900  Level New York Center
07:52PM 41.1047 -73.7725 325° Northwest 364 419 19,200 1,320 Climbing New York Center
07:53PM 41.1408 -73.9092 289° West 369 425 20,600 1,260 Climbing New York Center
07:54PM 41.1636 -74.0592 281° West 384 442 21,800 1,140 Climbing New York Center
07:55PM 41.1836 -74.2392 278° West 413 475 22,900 900 Climbing New York Center
07:56PM 41.1972 -74.4081 276° West 447 514 23,600 1,020 Climbing New York Center
07:57PM 41.1525 -74.5683 250° West 454 522 25,000 1,320 Climbing New York Center
07:58PM 41.0853 -74.7131 238° Southwest 454 522 26,300 1,200 Climbing New York Center
07:59PM 41.0158 -74.8631 239° Southwest 467 537 27,400 1,260 Climbing New York Center
08:00PM 40.9539 -75.0214 243° Southwest 472 543 28,800 1,320 Climbing New York Center
08:01PM 40.9125 -75.1864 252° West 482 555 30,100 1,200 Climbing New York Center
08:02PM 40.8722 -75.3619 253° West 489 563 31,300 1,200 Climbing New York Center
08:03PM 40.8344 -75.5322 254° West 489 563 32,600 1,260 Climbing New York Center
08:04PM 40.7942 -75.7022 253° West 489 563 33,800 660 Climbing New York Center
08:05PM 40.7558 -75.8667 253° West 483 556 34,000 60 Climbing New York Center
08:06PM 40.7153 -76.0306 252° West 483 556 34,000  Level New York Center
08:07PM 40.6747 -76.1944 252° West 478 550 34,000  Level New York Center
08:08PM 40.6831 -76.3675 274° West 468 539 34,000  Level New York Center
08:09PM 40.7081 -76.5447 281° West 479 551 34,000  Level New York Center
08:10PM 40.7347 -76.7225 281° West 490 564 34,000  Level New York Center
08:11PM 40.7614 -76.8947 282° West 490 564 34,000  Level New York Center
08:12PM 40.7875 -77.0697 281° West 490 564 34,000  Level New York Center
08:13PM 40.8114 -77.2475 280° West 490 564 34,000  Level New York Center
08:14PM 40.8392 -77.4203 282° West 485 558 34,000  Level New York Center
08:15PM 40.8625 -77.5953 280° West 485 558 34,000  Level New York Center
08:17PM 40.9131 -77.9783 280° West 506 582 34,000  Level Cleveland Center
08:18PM 40.9358 -78.1561 280° West 494 568 34,000  Level Cleveland Center
08:19PM 40.9606 -78.3478 280° West 489 563 34,000  Level Cleveland Center
08:20PM 40.9825 -78.5231 279° West 484 557 34,000  Level Cleveland Center
08:21PM 41.0044 -78.7011 279° West 489 563 34,000  Level Cleveland Center
08:22PM 41.0239 -78.8794 278° West 489 563 34,000  Level Cleveland Center
08:23PM 41.0264 -79.0611 271° West 489 563 34,000  Level Cleveland Center
08:24PM 41.0308 -79.2400 272° West 489 563 34,000  Level Cleveland Center
08:25PM 41.0328 -79.4161 271° West 489 563 34,000  Level Cleveland Center
08:26PM 41.0364 -79.5950 272° West 489 563 34,000  Level Cleveland Center
08:27PM 41.0378 -79.7792 271° West 494 568 34,000  Level Cleveland Center
08:28PM 41.0389 -79.9556 271° West 494 568 34,000  Level Cleveland Center
08:29PM 41.0439 -80.1400 272° West 494 568 34,000  Level Cleveland Center
08:30PM 41.0444 -80.3161 270° West 494 568 34,000  Level Cleveland Center
08:31PM 41.0469 -80.4950 271° West 494 568 34,000  Level Cleveland Center
08:32PM 41.0469 -80.6767 270° West 494 568 34,000  Level Cleveland Center
08:33PM 41.0486 -80.8503 271° West 489 563 34,000  Level Cleveland Center
08:34PM 41.0481 -81.0264 270° West 484 557 34,000  Level Cleveland Center
08:35PM 41.0453 -81.2108 269° West 493 567 34,100 600 Climbing Cleveland Center
08:36PM 41.0442 -81.3869 270° West 493 567 35,300 900 Climbing Cleveland Center
08:37PM 41.0428 -81.5631 269° West 486 559 36,000 300 Climbing Cleveland Center
08:38PM 41.0433 -81.7200 270° West 486 559 36,000  Level Cleveland Center
08:39PM 41.0436 -81.8964 270° West 475 547 36,000  Level Cleveland Center
08:40PM 41.0436 -82.0697 270° West 475 547 36,000  Level Cleveland Center
08:41PM 41.0408 -82.2625 269° West 475 547 36,000  Level Cleveland Center
08:42PM 41.0403 -82.4358 270° West 470 541 36,000  Level Cleveland Center
08:43PM 41.0372 -82.6092 269° West 475 547 36,000  Level Cleveland Center
08:44PM 41.0339 -82.7853 269° West 475 547 36,000  Level Cleveland Center
08:45PM 41.0328 -82.9533 270° West 470 541 36,000  Level Cleveland Center
08:46PM 41.0311 -83.1264 269° West 476 548 36,000  Level Cleveland Center
08:47PM 41.0294 -83.2833 269° West 476 548 36,000  Level Cleveland Center
08:48PM 41.0269 -83.4733 269° West 476 548 36,000  Level Cleveland Center
08:50PM 41.0186 -83.7992 268° West 485 558 36,000  Level Chicago Center
08:51PM 41.0144 -83.9753 268° West 480 552 36,000  Level Chicago Center
08:52PM 41.0100 -84.1542 268° West 485 558 36,000  Level Chicago Center
08:53PM 41.0061 -84.3306 268° West 482 555 36,000  Level Chicago Center
08:54PM 41.0000 -84.5050 267° West 475 547 36,000  Level Chicago Center
08:55PM 40.9953 -84.6822 268° West 477 549 36,000  Level Chicago Center
08:56PM 40.9889 -84.8906 268° West 475 547 36,000  Level Chicago Center
08:57PM 40.9831 -85.0636 267° West 471 542 36,000  Level Chicago Center
08:58PM 40.9739 -85.2361 266° West 470 541 36,000  Level Chicago Center
08:59PM 40.9525 -85.4039 260° West 463 533 36,000  Level Chicago Center
09:00PM 40.9308 -85.5753 261° West 470 541 36,000  Level Chicago Center
09:01PM 40.9094 -85.7464 261° West 472 543 36,000  Level Chicago Center
09:03PM 40.8872 -85.9183 260° West 473 544 36,000  Level Chicago Center
09:04PM 40.8625 -86.1256 261° West 475 547 36,000  Level Chicago Center
09:05PM 40.8400 -86.3000 260° West 480 552 36,000  Level Chicago Center
09:06PM 40.8167 -86.4728 260° West 479 551 36,000  Level Chicago Center
09:07PM 40.7942 -86.6458 260° West 478 550 36,000  Level Chicago Center
09:08PM 40.7694 -86.8281 260° West 467 537 36,000  Level Chicago Center
09:09PM 40.7475 -86.9936 260° West 462 532 36,000  Level Chicago Center
09:10PM 40.7242 -87.1589 259° West 460 529 36,000  Level Chicago Center
09:11PM 40.7008 -87.3239 259° West 459 528 36,000 -540 Level Chicago Center
09:12PM 40.6722 -87.5183 259° West 454 522 34,900 -1,020 Descending Chicago Center
09:13PM 40.6478 -87.6811 259° West 453 521 34,000 -480 Descending Chicago Center
09:14PM 40.6211 -87.8458 258° West 458 527 34,000  Level Chicago Center
09:15PM 40.5950 -88.0094 258° West 458 527 34,000  Level Chicago Center
09:16PM 40.5678 -88.1750 258° West 462 532 34,000  Level Chicago Center
09:17PM 40.5419 -88.3411 258° West 464 534 34,000  Level Chicago Center
09:18PM 40.5164 -88.5042 258° West 458 527 34,000  Level Chicago Center
09:19PM 40.4831 -88.6981 257° West 456 525 34,000  Level Chicago Center
09:20PM 40.4564 -88.8614 258° West 458 527 34,000  Level Chicago Center
09:21PM 40.4297 -89.0250 258° West 459 528 34,000  Level Chicago Center
09:22PM 40.4031 -89.1853 258° West 454 522 34,000  Level Chicago Center
09:23PM 40.3753 -89.3467 257° West 455 524 34,000  Level Chicago Center
09:24PM 40.3486 -89.5072 258° West 454 522 34,000  Level Chicago Center
09:25PM 40.3119 -89.6989 256° West 456 525 34,000  Level Chicago Center
09:26PM 40.2844 -89.8589 257° West 454 522 34,000  Level Chicago Center
09:27PM 40.2597 -89.9989 257° West 451 519 34,000  Level Chicago Center
09:28PM 40.2264 -90.1894 257° West 451 519 34,000  Level Chicago Center
09:29PM 40.1969 -90.3464 256° West 450 518 34,000  Level Chicago Center
09:30PM 40.1686 -90.5031 257° West 449 517 34,000  Level Chicago Center
09:31PM 40.1394 -90.6603 256° West 450 518 34,000  Level Chicago Center
09:32PM 40.1106 -90.8147 256° West 445 512 34,000  Level Chicago Center
09:33PM 40.0822 -90.9681 256° West 438 504 34,000  Level Chicago Center
09:34PM 40.0469 -91.1536 256° West 442 509 34,000  Level Chicago Center
09:35PM 40.0178 -91.3042 256° West 433 498 34,000  Level Chicago Center
09:37PM 39.9892 -91.4561 256° West 434 499 34,000  Level Chicago Center
09:38PM 39.9608 -91.6069 256° West 432 497 34,000  Level Chicago Center
09:39PM 39.9297 -91.7581 255° West 434 499 34,000  Level Chicago Center
09:40PM 39.8933 -91.9417 256° West 434 499 34,000  Level Kansas City Center
09:41PM 39.8642 -92.0906 256° West 429 494 34,000  Level Kansas City Center
09:42PM 39.8342 -92.2408 255° West 431 496 34,000  Level Kansas City Center
09:43PM 39.7967 -92.4217 255° West 431 496 34,000  Level Kansas City Center
09:44PM 39.7672 -92.5714 256° West 430 495 34,000  Level Kansas City Center
09:45PM 39.7361 -92.7231 255° West 432 497 34,000  Level Kansas City Center
09:46PM 39.7053 -92.8731 255° West 433 498 34,000  Level Kansas City Center
09:47PM 39.6728 -93.0214 254° West 431 496 34,000  Level Kansas City Center
09:48PM 39.6411 -93.1719 255° West 433 498 34,000  Level Kansas City Center
09:49PM 39.6106 -93.3228 255° West 435 501 34,000  Level Kansas City Center
09:50PM 39.5781 -93.4742 254° West 437 503 34,000  Level Kansas City Center
09:51PM 39.5400 -93.6569 255° West 441 507 34,000  Level Kansas City Center
09:52PM 39.5022 -93.8044 252° West 435 501 34,000  Level Kansas City Center
09:53PM 39.4581 -93.9439 248° West 437 503 34,000  Level Kansas City Center
09:54PM 39.4089 -94.1061 249° West 435 501 34,000  Level Kansas City Center
09:55PM 39.3661 -94.2447 248° West 433 498 34,000  Level Kansas City Center
09:56PM 39.3183 -94.3769 245° Southwest 423 487 34,000  Level Kansas City Center
09:57PM 39.2472 -94.5253 238° Southwest 431 496 34,000  Level Kansas City Center
09:58PM 39.1878 -94.6508 239° Southwest 429 494 34,000  Level Kansas City Center
09:59PM 39.1169 -94.8006 239° Southwest 436 502 34,000  Level Kansas City Center
10:00PM 39.0569 -94.9292 239° Southwest 435 501 34,000  Level Kansas City Center
10:01PM 38.9947 -95.0581 238° Southwest 438 504 34,000  Level Kansas City Center
10:02PM 38.9231 -95.2078 238° Southwest 436 502 34,000  Level Kansas City Center
10:03PM 38.8628 -95.3367 239° Southwest 436 502 34,000  Level Kansas City Center
10:04PM 38.7897 -95.4528 231° Southwest 438 504 34,000  Level Kansas City Center
10:05PM 38.6889 -95.5728 223° Southwest 443 510 34,000  Level Kansas City Center
10:06PM 38.6036 -95.6731 223° Southwest 438 504 34,000  Level Kansas City Center
10:07PM 38.5183 -95.7750 223° Southwest 438 504 34,000  Level Kansas City Center
10:08PM 38.4164 -95.8925 222° Southwest 440 506 34,000  Level Kansas City Center
10:09PM 38.3283 -95.9919 222° Southwest 442 509 34,000  Level Kansas City Center
10:10PM 38.2239 -96.1083 221° Southwest 445 512 34,000  Level Kansas City Center
10:11PM 38.1300 -96.2075 220° Southwest 449 517 34,000  Level Kansas City Center
10:13PM 38.0314 -96.3053 218° Southwest 449 517 34,000  Level Kansas City Center
10:14PM 37.9331 -96.4025 218° Southwest 447 514 34,000  Level Kansas City Center
10:15PM 37.8717 -96.5267 238° Southwest 425 489 34,000  Level Kansas City Center
10:16PM 37.8494 -96.6689 259° West 412 474 34,000  Level Kansas City Center
10:17PM 37.8247 -96.8103 258° West 412 474 34,000  Level Kansas City Center
10:18PM 37.8006 -96.9531 258° West 415 478 34,000  Level Kansas City Center
10:19PM 37.7756 -97.0969 258° West 418 481 34,000  Level Kansas City Center
10:20PM 37.7503 -97.2408 258° West 418 481 34,000  Level Kansas City Center
10:21PM 37.7267 -97.3831 258° West 414 476 34,000  Level Kansas City Center
10:22PM 37.7003 -97.5239 257° West 412 474 34,000  Level Kansas City Center
10:23PM 37.6761 -97.6658 258° West 409 471 34,000  Level Kansas City Center
10:24PM 37.6458 -97.8364 257° West 409 471 34,000  Level Kansas City Center
10:25PM 37.6208 -97.9786 258° West 410 472 34,000  Level Kansas City Center
10:26PM 37.5958 -98.1189 257° West 408 470 34,000  Level Kansas City Center
10:27PM 37.5714 -98.2544 257° West 396 456 34,000  Level Kansas City Center
10:28PM 37.5458 -98.3897 257° West 396 456 34,000  Level Kansas City Center
10:29PM 37.5214 -98.5244 257° West 394 453 34,000  Level Kansas City Center
10:30PM 37.4958 -98.6614 257° West 399 459 34,000  Level Kansas City Center
10:31PM 37.4717 -98.8019 258° West 405 466 34,000  Level Kansas City Center
10:32PM 37.4425 -98.9403 255° West 409 471 34,000  Level Kansas City Center
10:33PM 37.4153 -99.0853 257° West 423 487 34,000  Level Kansas City Center
10:34PM 37.3883 -99.2292 257° West 423 487 34,000  Level Kansas City Center
10:35PM 37.3608 -99.3733 257° West 424 488 34,000  Level Kansas City Center
10:36PM 37.2917 -99.5156 239° Southwest 427 491 34,000 240 Level Kansas City Center
10:37PM 37.2272 -99.6358 236° Southwest 430 495 34,500 960 Climbing Kansas City Center
10:38PM 37.1542 -99.7753 237° Southwest 429 494 36,000 1,320 Climbing Kansas City Center
10:39PM 37.0925 -99.8925 237° Southwest 423 487 37,200 960 Climbing Kansas City Center
10:40PM 37.0342 -100.0089 238° Southwest 415 478 38,000 360 Climbing Kansas City Center
10:41PM 37.0042 -100.1631 256° West 406 467 38,000  Level Kansas City Center
10:42PM 36.9783 -100.2964 256° West 408 470 38,000  Level Kansas City Center
10:43PM 36.9542 -100.4308 257° West 411 473 38,000  Level Kansas City Center
10:44PM 36.9247 -100.5869 257° West 413 475 38,000  Level Kansas City Center
10:45PM 36.8986 -100.7200 256° West 411 473 38,000  Level Kansas City Center
10:46PM 36.8744 -100.8533 257° West 412 474 38,000  Level Kansas City Center
10:47PM 36.8453 -101.0064 257° West 408 470 38,000  Level Kansas City Center
10:48PM 36.8194 -101.1389 256° West 408 470 38,000  Level Kansas City Center
10:49PM 36.7936 -101.2711 256° West 409 471 38,000  Level Kansas City Center
10:50PM 36.7644 -101.4267 257° West 411 473 38,000  Level Kansas City Center
10:51PM 36.7381 -101.5589 256° West 411 473 38,000  Level Kansas City Center
10:52PM 36.7122 -101.6903 256° West 410 472 38,000  Level Kansas City Center
10:53PM 36.6825 -101.8400 256° West 401 461 38,000  Level Kansas City Center
10:54PM 36.6564 -101.9683 256° West 399 459 38,000  Level Kansas City Center
10:55PM 36.6300 -102.0956 256° West 398 458 38,000  Level Albuquerque Center
10:56PM 36.6061 -102.2200 257° West 395 455 38,000  Level Albuquerque Center
10:57PM 36.5731 -102.3800 256° West 399 459 38,000  Level Albuquerque Center
10:58PM 36.5458 -102.5128 256° West 399 459 38,000  Level Albuquerque Center
10:59PM 36.5183 -102.6436 255° West 396 456 38,000  Level Albuquerque Center
11:00PM 36.4914 -102.7778 256° West 399 459 38,000  Level Albuquerque Center
11:01PM 36.4611 -102.9211 255° West 396 456 38,000  Level Albuquerque Center
11:02PM 36.4331 -103.0550 255° West 398 458 38,000  Level Albuquerque Center
11:03PM 36.4042 -103.1911 255° West 403 464 38,000  Level Albuquerque Center
11:04PM 36.3753 -103.3267 255° West 404 465 38,000  Level Albuquerque Center
11:05PM 36.3461 -103.4650 255° West 409 471 38,000  Level Albuquerque Center
11:06PM 36.3161 -103.6028 255° West 411 473 38,000  Level Albuquerque Center
11:07PM 36.2867 -103.7392 255° West 410 472 38,000  Level Albuquerque Center
11:08PM 36.2569 -103.8742 255° West 407 468 38,000  Level Albuquerque Center
11:09PM 36.2281 -104.0103 255° West 406 467 38,000  Level Albuquerque Center
11:11PM 36.1975 -104.1456 254° West 406 467 38,000  Level Albuquerque Center
11:12PM 36.1669 -104.2786 254° West 403 464 38,000  Level Albuquerque Center
11:13PM 36.1306 -104.4375 254° West 406 467 38,000  Level Albuquerque Center
11:14PM 36.1011 -104.5731 255° West 406 467 38,000  Level Albuquerque Center
11:15PM 36.0706 -104.7081 254° West 405 466 38,000  Level Albuquerque Center
11:16PM 36.0403 -104.8417 254° West 405 466 38,000  Level Albuquerque Center
11:17PM 36.0072 -104.9800 254° West 413 475 38,000  Level Albuquerque Center
11:18PM 35.9750 -105.1178 254° West 415 478 38,000  Level Albuquerque Center
11:19PM 35.9433 -105.2564 254° West 418 481 38,000  Level Albuquerque Center
11:20PM 35.9114 -105.3944 254° West 417 480 38,000  Level Albuquerque Center
11:21PM 35.8803 -105.5283 254° West 408 470 38,000  Level Albuquerque Center
11:22PM 35.8458 -105.6736 254° West 401 461 38,000  Level Albuquerque Center
11:23PM 35.8150 -105.8044 254° West 399 459 38,000  Level Albuquerque Center
11:24PM 35.7833 -105.9347 253° West 398 458 38,000  Level Albuquerque Center
11:25PM 35.7528 -106.0639 254° West 396 456 38,000  Level Albuquerque Center
11:26PM 35.7228 -106.1919 254° West 393 452 38,000  Level Albuquerque Center
11:27PM 35.6894 -106.3353 254° West 389 448 38,000  Level Albuquerque Center
11:28PM 35.6586 -106.4561 253° West 387 445 38,000  Level Albuquerque Center
11:29PM 35.6317 -106.5714 254° West 387 445 38,000  Level Albuquerque Center
11:30PM 35.5925 -106.7300 253° West 401 461 38,000  Level Albuquerque Center
11:31PM 35.5614 -106.8581 253° West 398 458 38,000  Level Albuquerque Center
11:32PM 35.5289 -106.9844 252° West 393 452 38,000  Level Albuquerque Center
11:33PM 35.4978 -107.1131 253° West 395 455 38,000  Level Albuquerque Center
11:34PM 35.4650 -107.2411 253° West 397 457 38,000  Level Albuquerque Center
11:35PM 35.4286 -107.3886 253° West 402 463 38,000  Level Albuquerque Center
11:36PM 35.3961 -107.5136 252° West 402 463 38,000  Level Albuquerque Center
11:37PM 35.3600 -107.6544 253° West 394 453 38,000  Level Albuquerque Center
11:38PM 35.3303 -107.7717 253° West 383 441 38,000  Level Albuquerque Center
11:39PM 35.3011 -107.8892 253° West 377 434 38,000  Level Albuquerque Center
11:40PM 35.2653 -108.0269 252° West 378 435 38,000  Level Albuquerque Center
11:41PM 35.2344 -108.1450 252° West 380 437 38,000  Level Albuquerque Center
11:42PM 35.1983 -108.2850 253° West 384 442 38,000  Level Albuquerque Center
11:43PM 35.1661 -108.4056 252° West 386 444 38,000  Level Albuquerque Center
11:44PM 35.1339 -108.5250 252° West 386 444 38,000  Level Albuquerque Center
11:45PM 35.0978 -108.6625 252° West 382 440 38,000  Level Albuquerque Center
11:46PM 35.0658 -108.7831 252° West 385 443 38,000  Level Albuquerque Center
11:47PM 35.0353 -108.9028 253° West 385 443 38,000  Level Albuquerque Center
11:48PM 34.9969 -109.0431 252° West 388 447 38,000  Level Albuquerque Center
11:49PM 34.9647 -109.1600 251° West 384 442 38,000 -420 Level Albuquerque Center
11:50PM 34.9167 -109.2947 247° West 384 442 37,200 -840 Descending Albuquerque Center
11:51PM 34.8744 -109.4097 246° West 388 447 36,300 -600 Descending Albuquerque Center
11:52PM 34.8328 -109.5194 245° Southwest 377 434 36,000 -180 Descending Albuquerque Center
11:53PM 34.7850 -109.6481 246° West 373 429 36,000  Level Albuquerque Center
11:54PM 34.7450 -109.7569 246° West 369 425 36,000 -300 Level Albuquerque Center
11:56PM 34.7036 -109.8678 246° West 373 429 35,400 -840 Descending Albuquerque Center
11:57PM 34.6558 -109.9964 246° West 374 430 34,300 -1,020 Descending Albuquerque Center
11:58PM 34.6144 -110.1072 246° West 375 432 33,400 -1,020 Descending Albuquerque Center
11:59PM 34.5697 -110.2411 248° West 378 435 32,300 -1,080 Descending Albuquerque Center
12:00AM 34.5239 -110.3475 242° Southwest 375 432 31,300 -1,020 Descending Albuquerque Center
12:01AM 34.4872 -110.4508 247° West 368 423 30,300 -1,020 Descending Albuquerque Center
12:02AM 34.4500 -110.5539 246° West 344 396 29,300 -1,020 Descending Albuquerque Center
12:03AM 34.4125 -110.6569 246° West 336 387 28,300 -1,140 Descending Albuquerque Center
12:04AM 34.3622 -110.7747 243° Southwest 331 381 27,100 -1,560 Descending Albuquerque Center
12:05AM 34.3053 -110.8594 231° Southwest 329 379 25,200 -1,920 Descending Albuquerque Center
12:06AM 34.2464 -110.9347 227° Southwest 314 361 23,300 -1,860 Descending Albuquerque Center
12:07AM 34.1892 -111.0094 227° Southwest 307 353 21,500 -1,740 Descending Albuquerque Center
12:08AM 34.1358 -111.0789 227° Southwest 290 334 19,800 -1,740 Descending Albuquerque Center
12:09AM 34.0806 -111.1506 227° Southwest 289 333 18,000 -1,800 Descending Albuquerque Center
12:10AM 34.0239 -111.2225 226° Southwest 293 337 16,200 -1,740 Descending Albuquerque Center
12:11AM 33.9681 -111.2947 227° Southwest 294 338 14,500 -1,860 Descending Albuquerque Center
12:12AM 33.9064 -111.3756 227° Southwest 293 337 12,500 -1,440 Descending Albuquerque Center
12:13AM 33.8547 -111.4286 220° Southwest 278 320 11,600 -780 Descending Albuquerque Center
12:14AM 33.7953 -111.4789 215° Southwest 263 303 11,000 -780 Descending Albuquerque Center
12:15AM 33.7367 -111.5294 216° Southwest 259 298 10,100 -840 Descending Albuquerque Center
12:16AM 33.6814 -111.5772 216° Southwest 248 285 9,300 -780 Descending Albuquerque Center
12:17AM 33.6289 -111.6208 215° Southwest 234 269 8,600 -900 Descending Albuquerque Center
12:18AM 33.5797 -111.6625 215° Southwest 221 254 7,500 -1,200 Descending Albuquerque Center
12:19AM 33.5286 -111.7042 214° Southwest 220 253 6,300 -1,140 Descending Albuquerque Center
12:20AM 33.5000 -111.7656 241° Southwest 213 245 5,200 -1,200 Descending Albuquerque Center
12:21AM 33.4664 -111.8325 239° Southwest 203 234 3,900 -1,080 Descending Albuquerque Center
12:22AM 33.4439 -111.8772 239° Southwest 181 208 3,100 -840 Descending Albuquerque Center